Time;durP1;ratioP1;P1;durP2;ratioP2;P2;SDS_P1;SDS_P2;PMS_P1;PMS_P2;Temp;Humidity;BMP_temperature;BMP_pressure;BME280_temperature;BME280_humidity;BME280_pressure;Samples;Min_cycle;Max_cycle;Signal;HPM_P1;HPM_P2
2021/05/06 00:31:05;;;;;;;1.55;0.40;;;13.90;99.90;;;;;;6214258;23;20348;-78
2021/05/06 00:33:30;;;;;;;0.80;0.35;;;13.90;99.90;;;;;;6214282;23;20009;-78
2021/05/06 00:35:56;;;;;;;0.65;0.30;;;13.90;99.90;;;;;;6213895;23;20128;-78
2021/05/06 00:38:25;;;;;;;1.65;0.43;;;13.80;99.90;;;;;;6212462;23;20063;-78
2021/05/06 00:57:03;;;;;;;0.90;0.30;;;13.70;99.90;;;;;;6215036;23;20001;-79
2021/05/06 01:09:29;;;;;;;1.65;0.50;;;13.70;99.90;;;;;;6215116;23;20004;-78
2021/05/06 01:11:59;;;;;;;2.92;0.47;;;13.70;99.90;;;;;;6214287;23;20309;-78
2021/05/06 01:14:25;;;;;;;1.20;0.40;;;13.70;99.90;;;;;;6213756;23;20001;-78
2021/05/06 01:16:50;;;;;;;1.52;0.50;;;13.70;99.90;;;;;;6214049;23;20011;-78
2021/05/06 01:19:16;;;;;;;1.30;0.43;;;13.60;99.90;;;;;;6212307;23;20004;-78
2021/05/06 01:21:42;;;;;;;2.35;0.50;;;13.60;99.90;;;;;;6213858;23;20384;-78
2021/05/06 01:24:08;;;;;;;5.65;0.50;;;13.60;99.90;;;;;;6214020;23;20035;-78
2021/05/06 01:29:04;;;;;;;3.53;0.43;;;13.50;99.90;;;;;;6215737;23;20032;-78
2021/05/06 01:31:34;;;;;;;0.30;0.20;;;13.50;99.90;;;;;;6214135;23;20000;-78
2021/05/06 01:36:36;;;;;;;1.98;0.30;;;13.50;99.90;;;;;;6214377;23;20440;-79
2021/05/06 02:00:18;;;;;;;12.15;0.90;;;12.60;99.90;;;;;;6213786;23;20479;-78
2021/05/06 02:02:45;;;;;;;1.73;0.32;;;12.60;99.90;;;;;;6212129;23;20447;-79
2021/05/06 02:05:11;;;;;;;2.03;0.40;;;12.50;99.90;;;;;;6213256;23;20004;-78
2021/05/06 02:07:39;;;;;;;1.10;0.33;;;12.40;99.90;;;;;;6213533;23;20008;-78
2021/05/06 02:10:17;;;;;;;0.70;0.40;;;12.40;99.90;;;;;;6211974;23;20015;-78
2021/05/06 02:12:44;;;;;;;1.15;0.30;;;12.30;99.90;;;;;;6213754;23;20008;-78
2021/05/06 02:15:13;;;;;;;;;;;12.30;99.90;;;;;;6213645;23;19997;-78
2021/05/06 02:17:40;;;;;;;2.28;0.57;;;12.30;99.90;;;;;;6212067;23;19903;-78
2021/05/06 02:20:07;;;;;;;0.40;0.30;;;12.20;99.90;;;;;;6213264;23;20004;-78
2021/05/06 02:22:33;;;;;;;3.58;0.60;;;12.20;99.90;;;;;;6213656;23;20024;-79
2021/05/06 02:24:59;;;;;;;2.40;0.47;;;12.20;99.90;;;;;;6213089;23;20004;-78
2021/05/06 02:27:26;;;;;;;0.68;0.40;;;12.20;99.90;;;;;;6213279;23;20013;-77
2021/05/06 02:29:52;;;;;;;0.98;0.30;;;12.20;99.90;;;;;;6186734;23;20001;-78
2021/05/06 02:32:18;;;;;;;11.40;0.60;;;12.10;99.90;;;;;;6213566;23;20008;-78
2021/05/06 02:34:45;;;;;;;5.32;0.63;;;12.10;99.90;;;;;;6213132;23;20330;-78
2021/05/06 02:37:12;;;;;;;2.28;0.68;;;12.20;99.90;;;;;;6213268;23;20005;-78
2021/05/06 02:39:38;;;;;;;1.63;0.45;;;12.20;99.90;;;;;;6212846;23;19999;-78
2021/05/06 02:42:04;;;;;;;3.47;0.60;;;12.20;99.90;;;;;;6213450;23;20080;-78
2021/05/06 02:44:33;;;;;;;3.80;0.52;;;12.20;99.90;;;;;;6211376;23;19997;-78
2021/05/06 02:46:59;;;;;;;6.47;0.80;;;12.20;99.90;;;;;;6211724;23;20020;-79
2021/05/06 02:49:25;;;;;;;4.50;0.82;;;12.20;99.90;;;;;;6213157;23;20408;-78
2021/05/06 02:51:54;;;;;;;4.50;0.50;;;12.30;99.90;;;;;;6211681;23;20004;-78
2021/05/06 02:54:20;;;;;;;4.70;0.73;;;12.30;99.90;;;;;;6213110;23;20000;-79
2021/05/06 03:04:42;;;;;;;4.47;0.45;;;12.50;99.90;;;;;;6212969;23;20078;-80
2021/05/06 03:07:10;;;;;;;4.13;0.47;;;12.50;99.90;;;;;;6213266;23;20317;-78
2021/05/06 03:09:52;;;;;;;1.75;0.50;;;12.60;99.90;;;;;;6213235;23;19997;-78
2021/05/06 03:22:59;;;;;;;1.50;0.30;;;12.50;99.90;;;;;;6213216;23;20028;-79
2021/05/06 03:25:28;;;;;;;4.03;0.60;;;12.50;99.90;;;;;;6213008;23;20005;-78
2021/05/06 03:28:10;;;;;;;0.63;0.38;;;12.50;99.90;;;;;;6213023;23;20176;-78
2021/05/06 03:41:45;;;;;;;2.85;0.50;;;12.60;99.90;;;;;;6213241;23;20012;-78
2021/05/06 03:47:28;;;;;;;1.50;0.52;;;12.50;99.90;;;;;;6215470;23;20020;-78
2021/05/06 04:16:52;;;;;;;1.95;0.40;;;12.80;99.90;;;;;;6214877;23;20344;-78
2021/05/06 04:27:18;;;;;;;2.25;0.47;;;12.80;99.90;;;;;;6214565;23;20058;-81
2021/05/06 04:37:46;;;;;;;1.45;0.52;;;12.60;99.90;;;;;;6215303;23;20026;-82
2021/05/06 05:06:11;;;;;;;0.77;0.40;;;12.40;99.90;;;;;;6216621;23;20008;-82
2021/05/06 05:09:06;;;;;;;4.53;0.70;;;12.40;99.90;;;;;;6214021;23;20012;-79
2021/05/06 05:25:11;;;;;;;0.57;0.40;;;12.60;99.90;;;;;;6213865;23;20031;-79
2021/05/06 05:27:34;;;;;;;4.63;0.60;;;12.60;99.90;;;;;;6213366;23;20009;-77
2021/05/06 05:30:00;;;;;;;2.58;0.50;;;12.70;99.90;;;;;;6213613;23;20087;-80
2021/05/06 05:32:26;;;;;;;1.45;0.38;;;12.70;99.90;;;;;;6213924;23;20408;-79
2021/05/06 05:35:16;;;;;;;2.35;0.50;;;12.70;99.90;;;;;;6211698;23;20005;-80
2021/05/06 05:37:46;;;;;;;3.08;0.50;;;12.70;99.90;;;;;;6213497;23;20021;-79
2021/05/06 05:56:05;;;;;;;2.30;0.45;;;13.30;99.90;;;;;;6213259;23;20043;-79
2021/05/06 05:58:31;;;;;;;1.23;0.45;;;13.30;99.90;;;;;;6213091;23;20005;-81
2021/05/06 06:00:57;;;;;;;1.10;0.35;;;13.30;99.90;;;;;;6213100;23;20004;-80
2021/05/06 06:03:22;;;;;;;7.03;1.05;;;13.40;99.90;;;;;;6212001;23;20091;-78
2021/05/06 06:05:48;;;;;;;2.00;0.75;;;13.50;99.90;;;;;;6186919;23;20022;-78
2021/05/06 06:08:18;;;;;;;3.40;0.70;;;13.60;99.90;;;;;;6213070;23;20020;-77
2021/05/06 06:10:44;;;;;;;7.63;0.57;;;13.70;99.90;;;;;;6213798;23;20360;-77
2021/05/06 06:13:10;;;;;;;6.10;0.57;;;13.70;99.90;;;;;;6213504;23;20560;-78
2021/05/06 06:18:59;;;;;;;1.17;0.40;;;13.80;99.90;;;;;;6213900;23;20005;-78
2021/05/06 06:21:13;;;;;;;1.50;0.43;;;13.80;99.90;;;;;;6201010;23;20005;-78
2021/05/06 06:23:39;;;;;;;2.42;0.40;;;13.90;99.90;;;;;;6213420;23;20031;-76
2021/05/06 06:26:06;;;;;;;1.08;0.50;;;14.00;99.90;;;;;;6213460;23;20008;-78
2021/05/06 06:28:43;;;;;;;7.13;0.75;;;14.00;99.90;;;;;;6213446;23;20015;-79
2021/05/06 06:33:47;;;;;;;3.92;0.68;;;14.00;99.90;;;;;;6213395;23;20032;-79
2021/05/06 06:36:13;;;;;;;7.90;0.93;;;14.10;99.90;;;;;;6213208;23;20009;-76
2021/05/06 06:38:39;;;;;;;2.60;0.60;;;14.10;99.90;;;;;;6213452;23;20004;-77
2021/05/06 06:41:09;;;;;;;1.63;0.50;;;14.10;99.90;;;;;;6213268;23;20029;-77
2021/05/06 06:43:39;;;;;;;2.33;0.50;;;14.10;99.90;;;;;;6213206;23;20083;-78
2021/05/06 06:46:05;;;;;;;0.95;0.50;;;14.10;99.90;;;;;;6213265;23;20001;-78
2021/05/06 06:48:32;;;;;;;0.55;0.50;;;14.20;99.90;;;;;;6211574;23;20352;-78
2021/05/06 06:50:58;;;;;;;2.78;0.70;;;14.20;99.90;;;;;;6212800;23;20051;-86
2021/05/06 06:53:23;;;;;;;2.58;0.43;;;14.30;99.90;;;;;;6212618;23;19996;-82
2021/05/06 06:55:49;;;;;;;5.47;0.70;;;14.30;99.90;;;;;;6212027;23;20004;-78
2021/05/06 06:58:16;;;;;;;1.35;0.50;;;14.30;99.90;;;;;;6213018;23;20099;-78
2021/05/06 07:00:43;;;;;;;1.15;0.47;;;14.40;99.90;;;;;;6212602;23;20023;-82
2021/05/06 07:03:09;;;;;;;2.03;0.50;;;14.50;99.90;;;;;;6212067;23;20012;-80
2021/05/06 07:05:35;;;;;;;1.45;0.50;;;14.50;99.60;;;;;;6211673;23;19997;-80
2021/05/06 07:08:18;;;;;;;1.38;0.60;;;14.50;99.80;;;;;;6212074;23;20024;-79
2021/05/06 07:10:47;;;;;;;3.15;0.60;;;14.60;99.60;;;;;;6210231;23;20086;-80
2021/05/06 07:13:13;;;;;;;3.95;0.60;;;14.80;99.30;;;;;;6211907;23;20001;-80
2021/05/06 07:15:39;;;;;;;2.35;0.45;;;15.00;99.20;;;;;;6210164;23;20064;-80
2021/05/06 07:18:09;;;;;;;4.32;0.60;;;15.10;99.00;;;;;;6212410;23;20028;-80
2021/05/06 07:20:35;;;;;;;3.38;0.70;;;15.20;99.20;;;;;;6211672;23;20004;-80
2021/05/06 07:23:01;;;;;;;6.38;0.88;;;15.00;98.60;;;;;;6211926;23;20004;-80
2021/05/06 07:25:27;;;;;;;6.35;0.52;;;14.90;98.90;;;;;;6211463;23;20455;-80
2021/05/06 07:27:52;;;;;;;2.17;0.60;;;14.70;98.90;;;;;;6211848;23;20047;-80
2021/05/06 07:30:19;;;;;;;1.75;0.60;;;14.60;99.70;;;;;;6211501;23;20432;-80
2021/05/06 07:32:44;;;;;;;0.70;0.60;;;14.40;99.70;;;;;;6211954;23;20011;-80
2021/05/06 07:35:11;;;;;;;2.05;0.50;;;14.40;99.90;;;;;;6211208;23;20036;-80
2021/05/06 07:37:38;;;;;;;3.85;0.88;;;14.40;99.90;;;;;;6211588;23;20547;-79
2021/05/06 07:40:05;;;;;;;3.03;0.50;;;14.50;99.90;;;;;;6211918;23;20327;-80
2021/05/06 07:42:30;;;;;;;2.67;0.90;;;14.60;99.90;;;;;;6211729;23;20004;-81
2021/05/06 07:44:56;;;;;;;1.98;0.73;;;14.80;99.80;;;;;;6211851;23;20336;-80
2021/05/06 07:47:22;;;;;;;2.90;0.90;;;14.80;99.60;;;;;;6213191;23;20013;-80
2021/05/06 07:49:49;;;;;;;2.35;0.93;;;14.90;99.40;;;;;;6213621;23;19996;-81
2021/05/06 07:52:18;;;;;;;5.05;0.85;;;15.10;99.40;;;;;;6211124;23;20008;-79
2021/05/06 07:54:44;;;;;;;8.02;1.00;;;15.30;99.00;;;;;;6212228;23;20000;-81
2021/05/06 07:57:10;;;;;;;5.15;1.02;;;15.50;98.00;;;;;;6211011;23;20009;-80
2021/05/06 07:59:36;;;;;;;1.42;0.50;;;15.60;98.40;;;;;;6210661;23;20207;-81
2021/05/06 08:02:03;;;;;;;1.70;1.08;;;15.90;98.30;;;;;;6212583;23;20052;-79
2021/05/06 08:04:29;;;;;;;4.13;0.88;;;16.00;97.20;;;;;;6212465;23;20518;-80
2021/05/06 08:06:55;;;;;;;4.22;0.60;;;16.20;97.40;;;;;;6212525;23;20070;-80
2021/05/06 08:09:20;;;;;;;3.97;0.77;;;16.40;97.30;;;;;;6212062;23;20331;-83
2021/05/06 08:11:46;;;;;;;6.93;1.05;;;16.40;96.70;;;;;;6212671;23;20448;-81
2021/05/06 08:14:12;;;;;;;5.15;0.93;;;16.40;96.70;;;;;;6209657;23;20000;-81
2021/05/06 08:16:37;;;;;;;4.07;0.70;;;16.40;96.80;;;;;;6212506;23;20008;-80
2021/05/06 08:19:03;;;;;;;3.47;0.80;;;16.40;97.50;;;;;;6212204;23;20012;-80
2021/05/06 08:21:31;;;;;;;2.05;0.60;;;16.30;97.20;;;;;;6212414;23;20075;-80
2021/05/06 08:23:57;;;;;;;3.42;0.98;;;16.30;96.80;;;;;;6209730;23;20375;-81
2021/05/06 08:26:25;;;;;;;4.10;0.77;;;16.30;97.10;;;;;;6212306;23;19997;-80
2021/05/06 08:28:52;;;;;;;6.97;0.60;;;16.20;97.00;;;;;;6213433;23;20004;-82
2021/05/06 08:31:18;;;;;;;3.13;1.10;;;16.20;97.30;;;;;;6214376;23;19997;-81
2021/05/06 08:33:44;;;;;;;1.67;0.70;;;16.30;97.20;;;;;;6214135;23;20012;-80
2021/05/06 08:36:10;;;;;;;2.45;0.80;;;16.50;97.00;;;;;;6213749;23;20439;-81
2021/05/06 08:38:36;;;;;;;3.40;0.90;;;16.60;96.30;;;;;;6214368;23;20305;-81
2021/05/06 08:41:02;;;;;;;3.95;0.77;;;16.70;96.40;;;;;;6187661;23;20491;-80
2021/05/06 08:43:31;;;;;;;8.25;1.17;;;17.10;96.20;;;;;;6212426;23;20332;-80
2021/05/06 08:45:58;;;;;;;3.83;0.75;;;17.60;95.60;;;;;;6214181;23;20011;-81
2021/05/06 08:48:24;;;;;;;;;;;17.70;94.10;;;;;;6212738;23;20012;-81
2021/05/06 08:50:53;;;;;;;1.80;0.80;;;18.00;94.20;;;;;;6213962;23;19906;-81
2021/05/06 08:53:21;;;;;;;5.22;1.60;;;18.30;93.50;;;;;;6213694;23;20011;-80
2021/05/06 08:55:47;;;;;;;1.40;0.70;;;18.40;94.10;;;;;;6213827;23;20032;-79
2021/05/06 08:58:13;;;;;;;4.85;0.80;;;18.60;93.30;;;;;;6212216;23;20005;-81
2021/05/06 09:00:38;;;;;;;1.75;0.80;;;18.60;93.00;;;;;;6213689;23;19997;-79
2021/05/06 09:03:05;;;;;;;5.28;1.02;;;18.60;93.60;;;;;;6214119;23;20027;-79
2021/05/06 09:05:35;;;;;;;8.73;0.93;;;18.80;93.00;;;;;;6211960;23;20005;-79
2021/05/06 09:08:01;;;;;;;1.98;0.70;;;18.90;91.90;;;;;;6213786;23;20014;-80
2021/05/06 09:10:41;;;;;;;4.70;0.70;;;18.80;92.40;;;;;;6212047;23;20005;-80
2021/05/06 09:13:27;;;;;;;3.75;0.50;;;18.80;92.00;;;;;;6213900;23;20026;-79
2021/05/06 09:15:53;;;;;;;2.60;0.68;;;19.00;92.10;;;;;;6213739;23;20424;-80
2021/05/06 09:18:39;;;;;;;9.73;0.60;;;19.00;91.50;;;;;;6213619;23;20012;-80
2021/05/06 09:21:07;;;;;;;6.40;0.93;;;18.90;92.00;;;;;;6213515;23;20395;-82
2021/05/06 09:23:34;;;;;;;6.63;0.95;;;18.90;92.70;;;;;;6212029;23;20318;-80
2021/05/06 09:26:06;;;;;;;3.05;0.93;;;19.00;92.40;;;;;;6213998;23;20008;-80
2021/05/06 09:28:34;;;;;;;5.20;0.75;;;19.20;92.30;;;;;;6213671;23;20436;-81
2021/05/06 09:31:05;;;;;;;3.20;1.88;;;19.20;92.20;;;;;;6213712;23;20003;-81
2021/05/06 09:33:33;;;;;;;7.80;0.70;;;19.30;91.10;;;;;;6186964;23;20012;-81
2021/05/06 09:36:09;;;;;;;2.75;0.70;;;19.20;91.60;;;;;;6213301;23;20012;-80
2021/05/06 09:38:42;;;;;;;2.05;0.80;;;19.60;90.90;;;;;;6213551;23;20244;-81
2021/05/06 09:41:09;;;;;;;2.72;0.88;;;19.70;91.20;;;;;;6213742;23;19997;-79
2021/05/06 09:43:42;;;;;;;6.07;1.60;;;20.20;90.00;;;;;;6211748;23;20011;-82
2021/05/06 09:46:29;;;;;;;2.35;0.80;;;20.30;89.50;;;;;;6213466;23;20052;-80
2021/05/06 09:49:02;;;;;;;4.80;0.75;;;20.50;87.50;;;;;;6213273;23;20013;-80
2021/05/06 09:51:50;;;;;;;2.25;0.60;;;20.30;89.00;;;;;;6213554;23;20010;-83
2021/05/06 09:54:20;;;;;;;5.78;1.27;;;20.40;88.50;;;;;;6211781;23;20004;-81
2021/05/06 09:56:54;;;;;;;4.07;0.77;;;20.30;89.00;;;;;;6213696;23;20000;-81
2021/05/06 09:59:28;;;;;;;4.43;1.42;;;20.40;90.90;;;;;;6213053;23;20005;-81
2021/05/06 10:02:05;;;;;;;2.15;0.90;;;20.40;89.70;;;;;;6211975;23;20012;-80
2021/05/06 10:04:31;;;;;;;2.00;0.57;;;20.20;89.70;;;;;;6213082;23;20451;-80
2021/05/06 10:07:15;;;;;;;3.95;1.20;;;20.20;88.30;;;;;;6213448;23;20020;-79
2021/05/06 10:10:03;;;;;;;2.55;0.70;;;20.70;88.00;;;;;;6213022;23;19997;-79
2021/05/06 10:12:30;;;;;;;1.52;0.73;;;20.80;85.10;;;;;;6213631;23;20497;-80
2021/05/06 10:14:57;;;;;;;2.42;0.90;;;21.30;84.70;;;;;;6212975;23;20005;-82
2021/05/06 10:17:24;;;;;;;2.13;0.93;;;21.40;82.90;;;;;;6213196;23;20000;-80
2021/05/06 10:19:50;;;;;;;3.28;1.02;;;21.50;83.80;;;;;;6211530;23;20004;-80
2021/05/06 10:22:21;;;;;;;2.30;0.95;;;21.60;82.40;;;;;;6213362;23;20008;-81
2021/05/06 10:24:48;;;;;;;1.67;0.60;;;21.30;82.40;;;;;;6211602;23;20096;-80
2021/05/06 10:27:16;;;;;;;6.28;1.00;;;20.70;84.90;;;;;;6213179;23;20012;-82
2021/05/06 10:29:43;;;;;;;1.00;0.88;;;20.50;86.60;;;;;;6212801;23;19993;-80
2021/05/06 10:32:10;;;;;;;2.90;0.98;;;20.40;86.90;;;;;;6211952;23;20008;-81
2021/05/06 10:34:37;;;;;;;3.70;1.10;;;20.40;86.60;;;;;;6211408;23;20008;-81
2021/05/06 10:37:03;;;;;;;2.33;0.98;;;20.30;86.00;;;;;;6213038;23;20352;-79
2021/05/06 10:39:56;;;;;;;4.72;1.00;;;19.90;86.30;;;;;;6211344;23;20428;-81
2021/05/06 10:42:32;;;;;;;3.28;0.98;;;19.80;87.40;;;;;;6207276;23;20324;-81
2021/05/06 10:45:12;;;;;;;2.08;0.63;;;19.40;87.00;;;;;;6212612;23;20000;-81
2021/05/06 10:47:38;;;;;;;1.70;0.93;;;19.40;90.00;;;;;;6212965;23;20230;-82
2021/05/06 10:50:09;;;;;;;8.55;0.90;;;20.00;90.10;;;;;;6212944;23;20052;-80
2021/05/06 10:52:37;;;;;;;2.72;0.77;;;20.60;86.80;;;;;;6213202;23;20005;-83
2021/05/06 10:55:04;;;;;;;5.32;0.68;;;20.90;85.20;;;;;;6212803;23;19997;-82
2021/05/06 10:57:34;;;;;;;4.35;1.58;;;20.80;86.10;;;;;;6213175;23;20005;-82
2021/05/06 11:00:00;;;;;;;5.55;0.90;;;21.00;85.50;;;;;;6211086;23;20001;-81
2021/05/06 11:02:43;;;;;;;1.33;0.87;;;21.10;86.20;;;;;;6213180;23;20004;-82
2021/05/06 11:05:20;;;;;;;5.28;0.80;;;21.10;83.70;;;;;;6211093;23;20004;-79
2021/05/06 11:08:04;;;;;;;4.30;0.73;;;21.00;85.60;;;;;;6212984;23;20012;-81
2021/05/06 11:10:46;;;;;;;2.25;0.68;;;20.90;85.50;;;;;;6212839;23;20007;-80
2021/05/06 11:13:12;;;;;;;2.80;0.93;;;20.80;84.90;;;;;;6213121;23;20000;-81
2021/05/06 11:15:39;;;;;;;3.25;0.88;;;21.00;86.20;;;;;;6212447;23;20009;-82
2021/05/06 11:18:09;;;;;;;4.93;0.85;;;21.00;85.30;;;;;;6213222;23;20047;-82
2021/05/06 11:20:41;;;;;;;2.88;1.00;;;20.90;84.20;;;;;;6214298;23;20008;-83
2021/05/06 11:23:23;;;;;;;4.45;1.00;;;21.10;83.50;;;;;;6210646;23;20001;-81
2021/05/06 11:25:51;;;;;;;1.75;0.80;;;21.70;85.10;;;;;;6210637;23;20387;-83
2021/05/06 11:28:19;;;;;;;2.20;0.85;;;22.00;82.10;;;;;;6210512;23;20013;-83
2021/05/06 11:30:49;;;;;;;2.80;0.75;;;22.20;80.30;;;;;;6210642;23;20004;-82
2021/05/06 11:33:21;;;;;;;2.92;0.98;;;22.00;81.20;;;;;;6210785;23;20009;-83
2021/05/06 11:36:11;;;;;;;3.25;0.98;;;21.90;83.00;;;;;;6208410;23;20024;-83
2021/05/06 11:38:41;;;;;;;2.42;0.90;;;21.80;81.30;;;;;;6210545;23;20424;-82
2021/05/06 11:41:08;;;;;;;7.68;1.02;;;22.00;83.10;;;;;;6210629;23;20005;-85
2021/05/06 11:43:40;;;;;;;3.63;1.20;;;21.90;81.20;;;;;;6210368;23;20011;-82
2021/05/06 11:46:06;;;;;;;5.75;0.90;;;21.70;83.20;;;;;;6210165;23;20087;-81
2021/05/06 11:48:39;;;;;;;8.93;1.33;;;21.80;82.50;;;;;;6209673;23;20403;-86
2021/05/06 11:51:06;;;;;;;4.60;1.05;;;22.10;82.20;;;;;;6212179;23;20001;-83
2021/05/06 11:53:34;;;;;;;2.28;1.00;;;22.20;81.30;;;;;;6184872;23;20447;-85
2021/05/06 11:56:10;;;;;;;3.15;1.02;;;22.60;81.50;;;;;;6210982;23;20011;-82
2021/05/06 11:58:39;;;;;;;3.72;1.00;;;22.60;79.00;;;;;;6211299;23;20005;-83
2021/05/06 12:01:05;;;;;;;2.22;0.85;;;22.40;78.60;;;;;;6209956;23;20088;-83
2021/05/06 12:03:36;;;;;;;1.27;0.98;;;21.90;80.70;;;;;;6211405;23;20320;-82
2021/05/06 12:06:02;;;;;;;1.38;0.80;;;21.60;82.30;;;;;;6210935;23;20000;-80
2021/05/06 12:08:44;;;;;;;1.95;0.90;;;21.30;83.80;;;;;;6209977;23;20023;-82
2021/05/06 12:11:10;;;;;;;3.58;1.00;;;21.30;82.90;;;;;;6209879;23;20013;-82
2021/05/06 12:13:37;;;;;;;5.38;1.05;;;21.60;84.10;;;;;;6204822;23;20000;-86
2021/05/06 12:16:10;;;;;;;7.30;1.38;;;23.00;80.70;;;;;;6207783;23;20502;-84
2021/05/06 12:18:36;;;;;;;6.82;1.00;;;25.00;75.00;;;;;;6207782;23;20350;-84
2021/05/06 12:21:06;;;;;;;4.50;1.00;;;26.00;71.60;;;;;;6207508;23;20455;-84
2021/05/06 12:23:34;;;;;;;5.80;1.50;;;25.90;67.40;;;;;;6206820;23;20008;-83
2021/05/06 12:26:00;;;;;;;2.00;0.80;;;25.40;68.20;;;;;;6208469;23;20076;-83
2021/05/06 12:28:26;;;;;;;5.30;1.00;;;25.20;69.20;;;;;;6209538;23;20008;-83
2021/05/06 12:31:02;;;;;;;10.25;0.98;;;25.40;69.10;;;;;;6208037;23;20012;-83
2021/05/06 12:33:32;;;;;;;1.63;0.88;;;27.30;65.40;;;;;;6210176;23;20008;-83
2021/05/06 12:35:58;;;;;;;4.53;1.17;;;28.70;61.70;;;;;;6209641;23;20457;-84
2021/05/06 12:38:24;;;;;;;5.70;1.33;;;30.90;57.10;;;;;;6210305;23;20003;-86
2021/05/06 12:40:52;;;;;;;2.08;0.60;;;32.10;52.50;;;;;;6210186;23;20018;-83
2021/05/06 12:43:44;;;;;;;5.70;0.82;;;32.80;46.30;;;;;;6209973;23;20070;-82
2021/05/06 12:46:11;;;;;;;2.90;1.05;;;35.10;45.50;;;;;;6209941;23;20499;-86
2021/05/06 12:48:41;;;;;;;3.67;1.05;;;37.50;40.90;;;;;;6209692;23;20020;-86
2021/05/06 12:51:08;;;;;;;3.30;0.93;;;39.00;35.00;;;;;;6210372;23;20009;-83
2021/05/06 12:53:34;;;;;;;3.13;0.90;;;38.50;34.40;;;;;;6209677;23;20008;-82
2021/05/06 12:56:00;;;;;;;3.17;0.93;;;38.00;33.60;;;;;;6210181;23;20328;-84
2021/05/06 12:58:30;;;;;;;;;;;37.20;34.40;;;;;;6208582;23;20572;-84
2021/05/06 13:00:55;;;;;;;4.28;1.10;;;38.00;33.40;;;;;;6210213;23;19904;-86
2021/05/06 13:03:34;;;;;;;;;;;39.30;32.90;;;;;;6209790;23;20004;-81
2021/05/06 13:06:05;;;;;;;2.45;1.00;;;40.60;31.80;;;;;;6209332;23;19903;-82
2021/05/06 13:08:35;;;;;;;9.65;1.50;;;42.00;29.90;;;;;;6208108;23;20474;-82
2021/05/06 13:11:02;;;;;;;4.50;1.70;;;42.30;30.80;;;;;;6210147;23;20027;-82
2021/05/06 13:13:49;;;;;;;7.05;1.20;;;42.70;28.90;;;;;;6182798;23;20349;-81
2021/05/06 13:16:17;;;;;;;5.85;1.55;;;43.00;27.90;;;;;;6209319;23;20001;-83
2021/05/06 13:19:02;;;;;;;8.10;1.38;;;42.90;27.00;;;;;;6208026;23;20092;-82
2021/05/06 13:21:27;;;;;;;5.55;2.15;;;42.50;28.00;;;;;;6209579;23;20004;-79
2021/05/06 13:23:54;;;;;;;7.18;1.90;;;42.00;28.00;;;;;;6209602;23;20011;-81
2021/05/06 13:26:37;;;;;;;6.90;1.77;;;41.10;28.20;;;;;;6209412;23;20024;-79
2021/05/06 13:29:06;;;;;;;8.07;1.63;;;37.70;31.00;;;;;;6207563;23;20426;-81
2021/05/06 13:31:35;;;;;;;11.00;1.55;;;35.20;32.80;;;;;;6209848;23;20083;-81
2021/05/06 13:34:17;;;;;;;9.20;1.40;;;35.70;34.20;;;;;;6207798;23;20096;-79
2021/05/06 13:36:45;;;;;;;7.78;2.42;;;34.20;35.50;;;;;;6209874;23;20027;-82
2021/05/06 13:39:13;;;;;;;8.90;2.00;;;35.10;35.30;;;;;;6209502;23;20004;-80
2021/05/06 13:41:46;;;;;;;6.68;1.75;;;35.10;34.20;;;;;;6209132;23;20008;-78
2021/05/06 13:44:21;;;;;;;10.25;2.08;;;36.80;34.10;;;;;;6209371;23;20087;-78
2021/05/06 13:46:54;;;;;;;6.80;1.67;;;38.10;32.40;;;;;;6209570;23;20036;-81
2021/05/06 13:49:26;;;;;;;8.73;2.25;;;38.10;31.20;;;;;;6209273;23;20130;-79
2021/05/06 13:51:53;;;;;;;5.72;1.75;;;35.90;32.70;;;;;;6209465;23;20005;-77
2021/05/06 13:54:21;;;;;;;5.90;1.98;;;34.10;35.30;;;;;;6208535;23;20087;-78
2021/05/06 13:56:47;;;;;;;8.98;2.20;;;32.10;36.90;;;;;;6209502;23;20009;-79
2021/05/06 13:59:13;;;;;;;11.65;2.45;;;31.80;38.40;;;;;;6209242;23;20059;-80
2021/05/06 14:01:39;;;;;;;9.63;2.38;;;31.30;39.20;;;;;;6209373;23;20014;-82
2021/05/06 14:04:06;;;;;;;10.05;1.55;;;31.00;40.30;;;;;;6210112;23;20004;-80
2021/05/06 14:06:33;;;;;;;8.85;2.00;;;31.20;39.00;;;;;;6209446;23;20011;-85
2021/05/06 14:08:58;;;;;;;16.00;2.30;;;28.50;43.60;;;;;;6209488;23;20039;-84
2021/05/06 14:11:26;;;;;;;11.33;2.37;;;27.80;45.70;;;;;;6209452;23;20428;-84
2021/05/06 14:13:57;;;;;;;7.03;2.05;;;28.50;43.80;;;;;;6210162;23;20008;-83
2021/05/06 14:16:23;;;;;;;13.25;2.03;;;27.50;45.80;;;;;;6184118;23;20423;-86
2021/05/06 14:18:50;;;;;;;11.13;1.98;;;27.00;45.80;;;;;;6210083;23;20011;-89
2021/05/06 14:21:20;;;;;;;10.70;1.92;;;26.40;49.00;;;;;;6209862;23;19993;-86
2021/05/06 14:23:46;;;;;;;11.75;2.60;;;25.80;48.40;;;;;;6209433;23;20491;-82
2021/05/06 14:26:14;;;;;;;8.20;2.17;;;24.60;52.10;;;;;;6209677;23;20001;-87
2021/05/06 14:28:40;;;;;;;14.07;2.75;;;25.20;52.70;;;;;;6209396;23;20017;-84
2021/05/06 14:31:06;;;;;;;11.63;2.22;;;25.40;51.30;;;;;;6206558;23;20470;-82
2021/05/06 14:33:32;;;;;;;6.82;2.28;;;25.70;52.60;;;;;;6209002;23;20005;-83
2021/05/06 14:35:57;;;;;;;11.63;2.42;;;25.30;50.60;;;;;;6209369;23;20070;-80
2021/05/06 14:38:23;;;;;;;18.52;2.47;;;24.30;53.30;;;;;;6209689;23;20087;-80
2021/05/06 14:40:49;;;;;;;5.18;1.92;;;23.70;55.40;;;;;;6209955;23;20080;-79
2021/05/06 14:43:14;;;;;;;8.70;2.10;;;23.10;56.40;;;;;;6209046;23;20058;-82
2021/05/06 14:45:40;;;;;;;8.93;1.88;;;22.50;58.50;;;;;;6209879;23;20082;-81
2021/05/06 14:48:09;;;;;;;13.93;2.20;;;22.90;59.30;;;;;;6210159;23;20677;-81
2021/05/06 14:50:35;;;;;;;9.85;2.50;;;23.20;57.30;;;;;;6210002;23;20005;-82
2021/05/06 14:53:01;;;;;;;12.23;2.33;;;23.30;57.00;;;;;;6208935;23;20498;-82
2021/05/06 14:55:27;;;;;;;9.05;1.95;;;23.30;58.00;;;;;;6209446;23;20351;-82
2021/05/06 14:57:53;;;;;;;17.27;2.83;;;24.00;57.60;;;;;;6213407;23;20004;-81
2021/05/06 15:00:21;;;;;;;10.07;2.67;;;23.70;56.60;;;;;;6211844;23;20385;-84
2021/05/06 15:02:48;;;;;;;13.40;2.28;;;23.10;58.00;;;;;;6212214;23;19993;-86
2021/05/06 15:05:14;;;;;;;13.63;3.03;;;22.60;61.20;;;;;;6212421;23;20436;-84
2021/05/06 15:07:39;;;;;;;10.82;2.70;;;23.00;59.50;;;;;;6212534;23;20072;-84
2021/05/06 15:10:06;;;;;;;14.05;2.40;;;23.40;58.10;;;;;;6212309;23;20043;-84
2021/05/06 15:12:33;;;;;;;15.98;2.42;;;23.00;58.80;;;;;;6212505;23;19997;-84
2021/05/06 15:15:00;;;;;;;21.60;2.83;;;23.10;59.10;;;;;;6210269;23;20074;-84
2021/05/06 15:17:26;;;;;;;8.75;2.33;;;23.90;58.10;;;;;;6186097;23;20059;-85
2021/05/06 15:19:53;;;;;;;10.85;2.40;;;23.70;58.30;;;;;;6213017;23;19993;-83
2021/05/06 15:22:19;;;;;;;12.68;2.85;;;24.00;57.90;;;;;;6213222;23;20008;-84
2021/05/06 15:24:45;;;;;;;18.50;3.80;;;24.10;55.90;;;;;;6212907;23;19993;-84
2021/05/06 15:27:12;;;;;;;17.63;2.05;;;23.50;57.90;;;;;;6213125;23;20335;-85
2021/05/06 15:29:37;;;;;;;9.77;2.42;;;23.70;59.60;;;;;;6211211;23;20082;-84
2021/05/06 15:32:03;;;;;;;11.20;2.72;;;24.30;58.00;;;;;;6186769;23;20352;-85
2021/05/06 15:34:29;;;;;;;21.30;2.70;;;24.20;57.50;;;;;;6212436;23;20059;-85
2021/05/06 15:36:54;;;;;;;21.45;2.67;;;23.60;58.10;;;;;;6215239;23;20803;-88
2021/05/06 15:39:20;;;;;;;7.03;2.08;;;23.70;57.90;;;;;;6217512;23;20004;-90
2021/05/06 15:41:46;;;;;;;17.33;2.75;;;22.90;59.40;;;;;;6214058;23;20426;-85
2021/05/06 15:44:11;;;;;;;10.45;2.10;;;23.40;60.80;;;;;;6213006;23;20000;-85
2021/05/06 15:46:37;;;;;;;24.27;2.85;;;23.00;58.80;;;;;;6213368;23;20000;-85
2021/05/06 15:49:05;;;;;;;14.15;2.65;;;22.70;60.20;;;;;;6212703;23;20005;-85
2021/05/06 15:51:31;;;;;;;11.65;2.90;;;22.40;60.60;;;;;;6211395;23;20004;-86
2021/05/06 15:53:58;;;;;;;14.23;2.70;;;22.20;62.60;;;;;;6212895;23;20057;-85
2021/05/06 15:56:24;;;;;;;14.90;2.88;;;22.10;62.70;;;;;;6213198;23;20443;-84
2021/05/06 16:01:35;;;;;;;15.70;3.30;;;22.30;62.20;;;;;;6212937;23;20091;-84
2021/05/06 16:04:04;;;;;;;15.77;3.28;;;22.30;62.60;;;;;;6212419;23;20032;-83
2021/05/06 16:06:30;;;;;;;11.25;2.72;;;22.00;63.70;;;;;;6213057;23;20024;-83
2021/05/06 16:08:56;;;;;;;17.10;2.55;;;21.60;64.40;;;;;;6188029;23;20091;-84
2021/05/06 16:11:22;;;;;;;14.15;2.35;;;21.80;65.10;;;;;;6214684;23;19996;-83
2021/05/06 16:13:47;;;;;;;17.85;2.58;;;22.10;64.30;;;;;;6214097;23;20012;-82
2021/05/06 16:16:13;;;;;;;14.30;3.00;;;22.20;63.80;;;;;;6213180;23;20443;-83
2021/05/06 16:18:44;;;;;;;14.50;2.83;;;22.20;64.00;;;;;;6214505;23;20392;-86
2021/05/06 16:21:10;;;;;;;14.40;3.00;;;22.20;64.90;;;;;;6214396;23;20008;-83
2021/05/06 16:23:38;;;;;;;15.30;2.72;;;22.40;63.20;;;;;;6214299;23;19993;-83
2021/05/06 16:26:05;;;;;;;15.82;2.53;;;21.90;65.20;;;;;;6188734;23;20000;-82
2021/05/06 16:28:31;;;;;;;;;;;21.40;66.80;;;;;;6214455;23;20496;-83
2021/05/06 16:30:57;;;;;;;14.05;2.70;;;21.70;68.90;;;;;;6214363;23;19956;-82
2021/05/06 16:33:23;;;;;;;13.50;2.40;;;21.50;69.60;;;;;;6214402;23;19989;-82
2021/05/06 16:36:38;;;;;;;24.33;2.95;;;21.10;69.60;;;;;;6214386;23;20016;-84